createdAt,value
2019-02-18T00:02:49.802Z,20.6
2019-02-18T00:05:55.800Z,20.6
2019-02-18T00:09:01.658Z,20.6
2019-02-18T00:12:07.704Z,20.6
2019-02-18T00:15:13.649Z,20.6
2019-02-18T00:18:19.622Z,20.5
2019-02-18T00:21:25.538Z,20.5
2019-02-18T00:24:31.498Z,20.5
2019-02-18T00:27:37.415Z,20.5
2019-02-18T00:30:43.429Z,20.5
2019-02-18T00:33:49.330Z,20.5
2019-02-18T00:36:55.295Z,20.5
2019-02-18T00:40:01.167Z,20.5
2019-02-18T00:43:07.103Z,20.5
2019-02-18T00:46:13.171Z,20.5
2019-02-18T00:49:19.030Z,20.5
2019-02-18T00:52:25.007Z,20.5
2019-02-18T00:55:31.017Z,20.5
2019-02-18T00:58:37.107Z,20.5
2019-02-18T01:01:45.062Z,20.5
2019-02-18T01:04:51.063Z,20.5
2019-02-18T01:07:56.999Z,20.5
2019-02-18T01:11:03.099Z,20.5
2019-02-18T01:14:08.955Z,20.5
2019-02-18T01:17:14.848Z,20.5
2019-02-18T01:20:20.875Z,20.5
2019-02-18T01:23:26.999Z,20.5
2019-02-18T01:26:32.925Z,20.6
2019-02-18T01:29:38.897Z,20.6
2019-02-18T01:32:45.024Z,20.6
2019-02-18T01:35:51.049Z,20.6
2019-02-18T01:38:56.995Z,20.7
2019-02-18T01:42:02.956Z,20.7
2019-02-18T01:45:08.885Z,20.7
2019-02-18T01:48:14.861Z,20.7
2019-02-18T01:51:20.916Z,20.8
2019-02-18T01:54:26.913Z,20.8
2019-02-18T01:57:35.691Z,20.8
2019-02-18T02:00:41.656Z,20.8
2019-02-18T02:03:47.510Z,20.8
2019-02-18T02:06:53.528Z,20.9
2019-02-18T02:09:59.513Z,20.9
2019-02-18T02:13:05.484Z,20.9
2019-02-18T02:16:11.511Z,20.9
2019-02-18T02:19:17.483Z,21
2019-02-18T02:22:23.503Z,21
2019-02-18T02:25:29.615Z,21
2019-02-18T02:28:35.555Z,21.1
2019-02-18T02:31:41.445Z,21.1
2019-02-18T02:34:47.463Z,21.1
2019-02-18T02:37:53.374Z,21.2
2019-02-18T02:41:11.292Z,21.2
2019-02-18T02:44:17.290Z,21.2
2019-02-18T02:47:23.363Z,21.2
2019-02-18T02:50:32.492Z,21.3
2019-02-18T02:53:38.535Z,21.3
2019-02-18T02:56:44.718Z,21.3
2019-02-18T02:59:50.636Z,21.4
2019-02-18T03:02:56.746Z,21.4
2019-02-18T03:06:02.756Z,21.4
2019-02-18T03:09:08.767Z,21.4
2019-02-18T03:12:14.866Z,21.5
2019-02-18T03:15:23.003Z,21.5
2019-02-18T03:18:29.104Z,21.5
2019-02-18T03:21:35.104Z,21.5
2019-02-18T03:24:41.017Z,21.6
2019-02-18T03:27:46.969Z,21.6
2019-02-18T03:30:53.169Z,21.6
2019-02-18T03:33:59.484Z,21.6
2019-02-18T03:37:05.711Z,21.6
2019-02-18T03:40:11.872Z,21.6
2019-02-18T03:43:17.850Z,21.7
2019-02-18T03:46:23.788Z,21.7
2019-02-18T03:49:29.741Z,21.7
2019-02-18T03:52:35.710Z,21.7
2019-02-18T03:55:41.608Z,21.7
2019-02-18T03:58:47.543Z,21.8
2019-02-18T04:01:53.508Z,21.9
2019-02-18T04:04:59.384Z,21.9
2019-02-18T04:08:05.481Z,21.9
2019-02-18T04:11:11.388Z,22
2019-02-18T04:14:17.403Z,22
2019-02-18T04:17:23.466Z,22.1
2019-02-18T04:20:29.456Z,22.1
2019-02-18T04:23:35.523Z,22.2
2019-02-18T04:26:41.379Z,22.2
2019-02-18T04:29:47.349Z,22.2
2019-02-18T04:32:56.248Z,22.3
2019-02-18T04:36:02.238Z,22.3
2019-02-18T04:39:08.308Z,22.3
2019-02-18T04:42:14.170Z,22.4
2019-02-18T04:45:20.105Z,22.4
2019-02-18T04:48:26.000Z,22.4
2019-02-18T04:51:32.029Z,22.4
2019-02-18T04:54:37.962Z,22.5
2019-02-18T04:57:43.951Z,22.5
2019-02-18T05:00:49.961Z,22.5
2019-02-18T05:03:55.883Z,22.6
2019-02-18T05:07:01.843Z,22.6
2019-02-18T05:10:07.706Z,22.6
2019-02-18T05:13:13.818Z,22.6
2019-02-18T05:16:19.920Z,22.6
2019-02-18T05:19:25.819Z,22.7
2019-02-18T05:22:34.742Z,22.7
2019-02-18T05:25:40.738Z,22.7
2019-02-18T05:28:46.725Z,22.7
2019-02-18T05:31:52.686Z,22.8
2019-02-18T05:34:58.644Z,22.8
2019-02-18T05:38:04.765Z,22.8
2019-02-18T05:41:10.773Z,22.9
2019-02-18T05:44:16.846Z,22.9
2019-02-18T05:47:22.721Z,22.9
2019-02-18T05:50:28.671Z,22.9
2019-02-18T05:53:34.727Z,22.9
2019-02-18T05:56:40.692Z,23
2019-02-18T05:59:46.830Z,23
2019-02-18T06:02:52.809Z,23.1
2019-02-18T06:05:58.764Z,23.2
2019-02-18T06:09:04.723Z,23.2
2019-02-18T06:12:13.953Z,23.3
2019-02-18T06:15:19.935Z,23.4
2019-02-18T06:18:25.974Z,23.5
2019-02-18T06:21:31.933Z,23.5
2019-02-18T06:24:38.017Z,23.6
2019-02-18T06:27:44.095Z,23.6
2019-02-18T06:30:54.844Z,23.7
2019-02-18T06:34:01.055Z,23.8
2019-02-18T06:37:07.212Z,23.9
2019-02-18T06:40:13.218Z,23.9
2019-02-18T06:43:19.247Z,24
2019-02-18T06:46:27.897Z,24.2
2019-02-18T06:49:33.835Z,24.3
2019-02-18T06:52:39.787Z,24.3
2019-02-18T06:55:45.817Z,24.4
2019-02-18T06:58:51.850Z,24.5
2019-02-18T07:01:57.724Z,24.5
2019-02-18T07:05:03.643Z,24.6
2019-02-18T07:08:09.668Z,24.6
2019-02-18T07:11:15.813Z,24.7
2019-02-18T07:14:21.823Z,24.7
2019-02-18T07:17:27.730Z,24.8
2019-02-18T07:20:33.728Z,24.8
2019-02-18T07:23:39.728Z,24.9
2019-02-18T07:26:45.605Z,25
2019-02-18T07:29:51.637Z,25
2019-02-18T07:32:57.802Z,25.1
2019-02-18T07:36:03.664Z,25.2
2019-02-18T07:39:09.552Z,25.3
2019-02-18T07:42:15.749Z,25.3
2019-02-18T07:45:21.891Z,25.4
2019-02-18T07:48:27.944Z,25.4
2019-02-18T07:51:34.133Z,25.5
2019-02-18T07:54:40.124Z,25.5
2019-02-18T07:57:46.283Z,25.6
2019-02-18T08:00:52.280Z,25.6
2019-02-18T08:03:58.162Z,25.7
2019-02-18T08:07:04.353Z,25.7
2019-02-18T08:10:12.266Z,25.7
2019-02-18T08:13:18.541Z,25.8
2019-02-18T08:16:24.622Z,25.8
2019-02-18T08:19:30.652Z,25.9
2019-02-18T08:22:36.615Z,25.9
2019-02-18T08:25:42.538Z,26
2019-02-18T08:28:48.547Z,26.1
2019-02-18T08:31:55.648Z,26.1
2019-02-18T08:35:01.590Z,26.1
2019-02-18T08:38:07.580Z,26.1
2019-02-18T08:41:13.627Z,26.1
2019-02-18T08:44:19.620Z,26.1
2019-02-18T08:47:25.542Z,26.1
2019-02-18T08:50:31.568Z,26.1
2019-02-18T08:53:37.504Z,26.1
2019-02-18T08:56:48.644Z,26.2
2019-02-18T08:59:54.660Z,26.2
2019-02-18T09:03:00.762Z,26.1
2019-02-18T09:06:06.896Z,26.1
2019-02-18T09:09:12.843Z,26.1
2019-02-18T09:12:19.048Z,26.1
2019-02-18T09:15:25.065Z,26.1
2019-02-18T09:18:31.227Z,26.1
2019-02-18T09:21:37.176Z,26.1
2019-02-18T09:24:43.148Z,26
2019-02-18T09:27:49.192Z,26
2019-02-18T09:30:55.208Z,26
2019-02-18T09:34:01.217Z,26
2019-02-18T09:37:09.320Z,26
2019-02-18T09:40:15.431Z,25.9
2019-02-18T09:43:22.588Z,25.9
2019-02-18T09:46:28.565Z,25.9
2019-02-18T09:49:34.637Z,25.9
2019-02-18T09:52:40.880Z,25.9
2019-02-18T09:55:46.963Z,25.9
2019-02-18T09:58:53.234Z,25.8
2019-02-18T10:01:59.225Z,25.8
2019-02-18T10:05:05.236Z,25.8
2019-02-18T10:08:11.343Z,25.8
2019-02-18T10:11:17.295Z,25.8
2019-02-18T10:14:23.297Z,25.8
2019-02-18T10:17:29.389Z,25.9
2019-02-18T10:20:35.384Z,25.8
2019-02-18T10:23:41.429Z,25.8
2019-02-18T10:26:47.438Z,25.8
2019-02-18T10:29:53.490Z,25.8
2019-02-18T10:32:59.487Z,25.8
2019-02-18T10:36:05.399Z,25.7
2019-02-18T10:39:11.396Z,25.8
2019-02-18T10:42:18.699Z,25.8
2019-02-18T10:45:24.664Z,25.7
2019-02-18T10:48:30.732Z,25.7
2019-02-18T10:51:37.026Z,25.8
2019-02-18T10:54:45.393Z,25.7
2019-02-18T10:57:53.918Z,25.7
2019-02-18T11:00:59.782Z,25.8
2019-02-18T11:04:07.282Z,25.8
2019-02-18T11:07:13.370Z,25.8
2019-02-18T11:10:19.357Z,25.9
2019-02-18T11:13:25.662Z,25.8
2019-02-18T11:16:31.569Z,25.8
2019-02-18T11:19:37.523Z,25.9
2019-02-18T11:22:43.482Z,25.9
2019-02-18T11:25:49.476Z,25.9
2019-02-18T11:28:55.450Z,25.9
2019-02-18T11:32:03.311Z,25.9
2019-02-18T11:35:09.456Z,25.8
2019-02-18T11:38:15.747Z,25.9
2019-02-18T11:41:27.218Z,25.9
2019-02-18T11:44:35.770Z,25.9
2019-02-18T11:47:42.131Z,25.9
2019-02-18T11:50:48.150Z,25.9
2019-02-18T11:53:54.205Z,25.9
2019-02-18T11:57:00.349Z,25.9
2019-02-18T12:00:06.504Z,25.9
2019-02-18T12:03:12.785Z,25.9
2019-02-18T12:06:21.294Z,25.9
2019-02-18T12:09:27.526Z,25.9
2019-02-18T12:12:33.678Z,25.9
2019-02-18T12:15:41.552Z,25.9
2019-02-18T12:18:48.073Z,25.8
2019-02-18T12:21:54.232Z,25.9
2019-02-18T12:25:00.395Z,25.9
2019-02-18T12:28:06.563Z,25.9
2019-02-18T12:31:12.777Z,25.9
2019-02-18T12:34:20.451Z,25.9
2019-02-18T12:37:30.066Z,25.9
2019-02-18T12:40:37.150Z,25.8
2019-02-18T12:43:43.171Z,25.8
2019-02-18T12:46:49.388Z,25.8
2019-02-18T12:49:55.608Z,25.8
2019-02-18T12:53:01.879Z,25.8
2019-02-18T12:56:08.608Z,25.8
2019-02-18T12:59:15.625Z,25.8
2019-02-18T13:02:26.302Z,25.8
2019-02-18T13:05:32.490Z,25.8
2019-02-18T13:08:43.912Z,25.7
2019-02-18T13:11:58.685Z,25.7
2019-02-18T13:15:05.306Z,25.7
2019-02-18T13:18:12.792Z,25.7
2019-02-18T13:21:20.190Z,25.7
2019-02-18T13:24:26.395Z,25.7
2019-02-18T13:27:32.625Z,25.8
2019-02-18T13:30:41.210Z,25.8
2019-02-18T13:33:47.303Z,25.7
2019-02-18T13:36:53.219Z,25.8
2019-02-18T13:39:59.334Z,25.8
2019-02-18T13:43:05.362Z,25.8
2019-02-18T13:46:11.522Z,25.9
2019-02-18T13:49:17.870Z,25.9
2019-02-18T13:52:23.891Z,25.9
2019-02-18T13:55:31.959Z,25.8
2019-02-18T13:58:38.014Z,25.9
2019-02-18T14:01:45.366Z,25.9
2019-02-18T14:04:51.517Z,25.9
2019-02-18T14:07:57.734Z,25.8
2019-02-18T14:11:12.090Z,25.9
2019-02-18T14:14:20.203Z,25.9
2019-02-18T14:17:26.256Z,25.9
2019-02-18T14:20:32.228Z,25.8
2019-02-18T14:23:38.295Z,25.8
2019-02-18T14:26:44.310Z,25.8
2019-02-18T14:29:50.360Z,25.8
2019-02-18T14:32:56.578Z,25.9
2019-02-18T14:36:03.257Z,25.8
2019-02-18T14:39:09.484Z,25.8
2019-02-18T14:42:15.583Z,25.8
2019-02-18T14:45:29.863Z,25.9
2019-02-18T14:48:35.927Z,25.9
2019-02-18T14:51:42.093Z,25.8
2019-02-18T14:54:48.078Z,25.8
2019-02-18T14:57:55.524Z,25.9
2019-02-18T15:01:01.629Z,25.9
2019-02-18T15:04:07.768Z,25.9
2019-02-18T15:07:14.946Z,25.9
2019-02-18T15:10:21.022Z,25.8
2019-02-18T15:13:27.049Z,25.8
2019-02-18T15:16:33.406Z,25.8
2019-02-18T15:19:44.340Z,25.9
2019-02-18T15:22:51.547Z,25.8
2019-02-18T15:25:57.764Z,25.9
2019-02-18T15:29:03.886Z,25.8
2019-02-18T15:32:10.004Z,25.9
2019-02-18T15:35:16.003Z,25.9
2019-02-18T15:38:22.080Z,25.9
2019-02-18T15:41:28.198Z,25.9
2019-02-18T15:44:34.195Z,25.9
2019-02-18T15:47:40.524Z,25.9
2019-02-18T15:50:48.476Z,25.9
2019-02-18T15:53:54.519Z,25.9
2019-02-18T15:57:00.655Z,25.9
2019-02-18T16:00:06.859Z,25.9
2019-02-18T16:03:12.913Z,25.9
2019-02-18T16:06:19.410Z,25.8
2019-02-18T16:09:25.464Z,25.8
2019-02-18T16:12:33.069Z,25.8
2019-02-18T16:15:39.116Z,25.8
2019-02-18T16:18:45.168Z,25.7
2019-02-18T16:21:51.654Z,25.7
2019-02-18T16:24:57.909Z,25.7
2019-02-18T16:28:04.135Z,25.7
2019-02-18T16:31:10.191Z,25.7
2019-02-18T16:34:16.285Z,25.6
2019-02-18T16:37:22.392Z,25.6
2019-02-18T16:40:28.488Z,25.6
2019-02-18T16:43:34.535Z,25.6
2019-02-18T16:46:40.633Z,25.5
2019-02-18T16:49:48.975Z,25.5
2019-02-18T16:52:55.031Z,25.5
2019-02-18T16:56:01.062Z,25.5
2019-02-18T16:59:07.090Z,25.5
2019-02-18T17:02:13.179Z,25.5
2019-02-18T17:05:21.024Z,25.5
2019-02-18T17:08:26.987Z,25.4
2019-02-18T17:11:33.153Z,25.4
2019-02-18T17:14:39.269Z,25.4
2019-02-18T17:17:46.847Z,25.4
2019-02-18T17:20:52.841Z,25.3
2019-02-18T17:23:58.818Z,25.3
2019-02-18T17:27:04.831Z,25.3
2019-02-18T17:30:10.849Z,25.3
2019-02-18T17:33:16.807Z,25.3
2019-02-18T17:36:24.768Z,25.2
2019-02-18T17:39:30.962Z,25.2
2019-02-18T17:42:36.905Z,25.2
2019-02-18T17:45:45.655Z,25.1
2019-02-18T17:48:51.752Z,25.1
2019-02-18T17:51:57.907Z,25.1
2019-02-18T17:55:04.008Z,25.1
2019-02-18T17:58:10.832Z,25.1
2019-02-18T18:01:16.896Z,25.1
2019-02-18T18:04:22.881Z,25
2019-02-18T18:07:30.273Z,25
2019-02-18T18:10:39.160Z,25
2019-02-18T18:13:45.099Z,25
2019-02-18T18:16:51.069Z,24.9
2019-02-18T18:19:57.033Z,24.9
2019-02-18T18:23:03.032Z,24.9
2019-02-18T18:26:09.005Z,24.8
2019-02-18T18:29:16.868Z,24.8
2019-02-18T18:32:22.961Z,24.8
2019-02-18T18:35:28.932Z,24.8
2019-02-18T18:38:34.989Z,24.8
2019-02-18T18:41:41.029Z,24.7
2019-02-18T18:44:46.906Z,24.7
2019-02-18T18:47:52.870Z,24.7
2019-02-18T18:51:03.072Z,24.7
2019-02-18T18:54:09.090Z,24.7
2019-02-18T18:57:15.131Z,24.7
2019-02-18T19:00:21.079Z,24.7
2019-02-18T19:03:27.120Z,24.6
2019-02-18T19:06:34.804Z,24.6
2019-02-18T19:09:40.977Z,24.6
2019-02-18T19:12:48.902Z,24.6
2019-02-18T19:15:54.839Z,24.6
2019-02-18T19:19:00.825Z,24.5
2019-02-18T19:22:08.437Z,24.5
2019-02-18T19:25:14.397Z,24.5
2019-02-18T19:28:20.454Z,24.5
2019-02-18T19:31:26.451Z,24.5
2019-02-18T19:34:33.988Z,24.5
2019-02-18T19:37:39.902Z,24.4
2019-02-18T19:40:45.839Z,24.4
2019-02-18T19:43:51.783Z,24.4
2019-02-18T19:46:57.873Z,24.4
2019-02-18T19:50:03.847Z,24.4
2019-02-18T19:53:09.822Z,24.4
2019-02-18T19:56:17.602Z,24.4
2019-02-18T19:59:23.511Z,24.3
2019-02-18T20:02:29.440Z,24.3
2019-02-18T20:05:35.703Z,24.3
2019-02-18T20:08:41.659Z,24.3
2019-02-18T20:11:47.627Z,24.3
2019-02-18T20:14:53.617Z,24.3
2019-02-18T20:18:01.615Z,24.2
2019-02-18T20:21:07.652Z,24.2
2019-02-18T20:24:13.607Z,24.2
2019-02-18T20:27:19.682Z,24.2
2019-02-18T20:30:25.676Z,24.2
2019-02-18T20:33:33.498Z,24.2
2019-02-18T20:36:39.487Z,24.2
2019-02-18T20:39:48.365Z,24.2
2019-02-18T20:42:54.399Z,24.1
2019-02-18T20:46:00.390Z,24.1
2019-02-18T20:49:06.310Z,24.1
2019-02-18T20:52:12.303Z,24.1
2019-02-18T20:55:18.363Z,24.1
2019-02-18T20:58:24.271Z,24.1
2019-02-18T21:01:30.645Z,24
2019-02-18T21:04:36.716Z,24
2019-02-18T21:07:42.662Z,24
2019-02-18T21:10:49.948Z,24
2019-02-18T21:13:55.859Z,24
2019-02-18T21:17:01.890Z,23.9
2019-02-18T21:20:07.843Z,23.9
2019-02-18T21:23:13.936Z,23.8
2019-02-18T21:26:19.906Z,23.8
2019-02-18T21:29:25.866Z,23.7
2019-02-18T21:32:33.876Z,23.7
2019-02-18T21:35:41.716Z,23.6
2019-02-18T21:38:47.595Z,23.6
2019-02-18T21:41:56.420Z,23.5
2019-02-18T21:45:02.402Z,23.5
2019-02-18T21:48:09.029Z,23.4
2019-02-18T21:51:15.162Z,23.4
2019-02-18T21:54:23.109Z,23.3
2019-02-18T21:57:29.086Z,23.3
2019-02-18T22:00:35.052Z,23.2
2019-02-18T22:03:41.127Z,23.2
2019-02-18T22:06:47.125Z,23.2
2019-02-18T22:09:53.054Z,23.2
2019-02-18T22:12:59.073Z,23.1
2019-02-18T22:16:05.050Z,23.1
2019-02-18T22:19:10.988Z,23
2019-02-18T22:22:16.920Z,23
2019-02-18T22:25:24.374Z,23
2019-02-18T22:28:30.344Z,23
2019-02-18T22:31:36.513Z,22.9
2019-02-18T22:34:44.370Z,22.9
2019-02-18T22:37:50.441Z,22.9
2019-02-18T22:40:56.370Z,22.8
2019-02-18T22:44:02.312Z,22.8
2019-02-18T22:47:08.232Z,22.8
2019-02-18T22:50:14.166Z,22.8
2019-02-18T22:53:20.137Z,22.7
2019-02-18T22:56:26.106Z,22.7
2019-02-18T22:59:31.994Z,22.7
2019-02-18T23:02:38.105Z,22.7
2019-02-18T23:05:44.878Z,22.6
2019-02-18T23:08:50.834Z,22.6
2019-02-18T23:11:56.881Z,22.6
2019-02-18T23:15:04.786Z,22.6
2019-02-18T23:18:10.752Z,22.5
2019-02-18T23:21:16.725Z,22.5
2019-02-18T23:24:25.461Z,22.5
2019-02-18T23:27:31.511Z,22.5
2019-02-18T23:30:37.471Z,22.4
2019-02-18T23:33:43.523Z,22.4
2019-02-18T23:36:49.519Z,22.4
2019-02-18T23:39:55.498Z,22.4
2019-02-18T23:43:01.527Z,22.4
2019-02-18T23:46:07.431Z,22.3
2019-02-18T23:49:13.425Z,22.3
2019-02-18T23:52:19.434Z,22.3
2019-02-18T23:55:25.365Z,22.3
2019-02-18T23:58:31.258Z,22.2
